sensor_id;sensor_type;location;lat;lon;timestamp;temperature;humidity
37289;DHT22;23174;49.462;11.000;2023-04-16T00:00:06;11.40;99.90
37289;DHT22;23174;49.462;11.000;2023-04-16T00:02:07;11.50;99.90
37289;DHT22;23174;49.462;11.000;2023-04-16T00:04:07;11.40;99.90
37289;DHT22;23174;49.462;11.000;2023-04-16T00:06:09;11.30;99.90
37289;DHT22;23174;49.462;11.000;2023-04-16T00:08:10;11.30;99.90
37289;DHT22;23174;49.462;11.000;2023-04-16T00:10:10;11.30;99.90
37289;DHT22;23174;49.462;11.000;2023-04-16T00:12:11;11.40;99.90
37289;DHT22;23174;49.462;11.000;2023-04-16T00:14:12;11.40;99.90
37289;DHT22;23174;49.462;11.000;2023-04-16T00:16:12;11.40;99.90
37289;DHT22;23174;49.462;11.000;2023-04-16T00:18:13;11.40;99.90
37289;DHT22;23174;49.462;11.000;2023-04-16T00:20:13;11.30;99.90
37289;DHT22;23174;49.462;11.000;2023-04-16T00:22:14;11.40;99.90
37289;DHT22;23174;49.462;11.000;2023-04-16T00:24:14;11.40;99.90
37289;DHT22;23174;49.462;11.000;2023-04-16T00:26:15;11.30;99.90
37289;DHT22;23174;49.462;11.000;2023-04-16T00:28:16;11.20;99.90
37289;DHT22;23174;49.462;11.000;2023-04-16T00:30:16;11.20;99.90
37289;DHT22;23174;49.462;11.000;2023-04-16T00:32:17;11.30;99.90
37289;DHT22;23174;49.462;11.000;2023-04-16T00:34:18;11.30;99.90
37289;DHT22;23174;49.462;11.000;2023-04-16T00:36:18;11.30;99.90
37289;DHT22;23174;49.462;11.000;2023-04-16T00:38:19;11.30;99.90
37289;DHT22;23174;49.462;11.000;2023-04-16T00:40:19;11.30;99.90
37289;DHT22;23174;49.462;11.000;2023-04-16T00:42:20;11.40;99.90
37289;DHT22;23174;49.462;11.000;2023-04-16T00:44:20;11.40;99.90
37289;DHT22;23174;49.462;11.000;2023-04-16T00:46:22;11.30;99.90
37289;DHT22;23174;49.462;11.000;2023-04-16T00:48:23;11.30;99.90
37289;DHT22;23174;49.462;11.000;2023-04-16T00:50:27;11.40;99.90
37289;DHT22;23174;49.462;11.000;2023-04-16T00:52:27;11.40;99.90
37289;DHT22;23174;49.462;11.000;2023-04-16T00:54:29;11.40;99.90
37289;DHT22;23174;49.462;11.000;2023-04-16T00:56:31;11.30;99.90
37289;DHT22;23174;49.462;11.000;2023-04-16T00:58:33;11.30;99.90
37289;DHT22;23174;49.462;11.000;2023-04-16T01:00:34;11.20;99.90
37289;DHT22;23174;49.462;11.000;2023-04-16T01:02:35;11.30;99.90
37289;DHT22;23174;49.462;11.000;2023-04-16T01:04:35;11.30;99.90
37289;DHT22;23174;49.462;11.000;2023-04-16T01:06:36;11.20;99.90
37289;DHT22;23174;49.462;11.000;2023-04-16T01:08:37;11.20;99.90
37289;DHT22;23174;49.462;11.000;2023-04-16T01:10:37;11.30;99.90
37289;DHT22;23174;49.462;11.000;2023-04-16T01:12:38;11.30;99.90
37289;DHT22;23174;49.462;11.000;2023-04-16T01:14:38;11.30;99.90
37289;DHT22;23174;49.462;11.000;2023-04-16T01:16:39;11.30;99.90
37289;DHT22;23174;49.462;11.000;2023-04-16T01:18:39;11.30;99.90
37289;DHT22;23174;49.462;11.000;2023-04-16T01:20:40;11.20;99.90
37289;DHT22;23174;49.462;11.000;2023-04-16T01:22:40;11.10;99.90
37289;DHT22;23174;49.462;11.000;2023-04-16T01:24:41;11.10;99.90
37289;DHT22;23174;49.462;11.000;2023-04-16T01:26:42;11.10;99.90
37289;DHT22;23174;49.462;11.000;2023-04-16T01:28:42;11.10;99.90
37289;DHT22;23174;49.462;11.000;2023-04-16T01:30:43;11.10;99.90
37289;DHT22;23174;49.462;11.000;2023-04-16T01:32:43;11.10;99.90
37289;DHT22;23174;49.462;11.000;2023-04-16T01:34:44;11.10;99.90
37289;DHT22;23174;49.462;11.000;2023-04-16T01:36:44;11.00;99.90
37289;DHT22;23174;49.462;11.000;2023-04-16T01:38:45;11.00;99.90
37289;DHT22;23174;49.462;11.000;2023-04-16T01:40:45;11.10;99.90
37289;DHT22;23174;49.462;11.000;2023-04-16T01:42:46;11.00;99.90
37289;DHT22;23174;49.462;11.000;2023-04-16T01:44:46;11.10;99.90
37289;DHT22;23174;49.462;11.000;2023-04-16T01:46:47;11.00;99.90
37289;DHT22;23174;49.462;11.000;2023-04-16T01:48:47;11.00;99.90
37289;DHT22;23174;49.462;11.000;2023-04-16T01:50:48;11.00;99.90
37289;DHT22;23174;49.462;11.000;2023-04-16T01:52:49;11.00;99.90
37289;DHT22;23174;49.462;11.000;2023-04-16T01:54:49;11.00;99.90
37289;DHT22;23174;49.462;11.000;2023-04-16T01:56:50;11.00;99.90
37289;DHT22;23174;49.462;11.000;2023-04-16T01:58:51;11.00;99.90
37289;DHT22;23174;49.462;11.000;2023-04-16T02:00:52;11.10;99.90
37289;DHT22;23174;49.462;11.000;2023-04-16T02:02:52;11.10;99.90
37289;DHT22;23174;49.462;11.000;2023-04-16T02:04:53;11.10;99.90
37289;DHT22;23174;49.462;11.000;2023-04-16T02:06:54;11.10;99.90
37289;DHT22;23174;49.462;11.000;2023-04-16T02:08:55;11.10;99.90
37289;DHT22;23174;49.462;11.000;2023-04-16T02:10:56;11.10;99.90
37289;DHT22;23174;49.462;11.000;2023-04-16T02:12:57;11.10;99.90
37289;DHT22;23174;49.462;11.000;2023-04-16T02:14:57;11.10;99.90
37289;DHT22;23174;49.462;11.000;2023-04-16T02:16:58;11.10;99.90
37289;DHT22;23174;49.462;11.000;2023-04-16T02:18:59;11.10;99.90
37289;DHT22;23174;49.462;11.000;2023-04-16T02:20:59;11.10;99.90
37289;DHT22;23174;49.462;11.000;2023-04-16T02:23:00;11.20;99.90
37289;DHT22;23174;49.462;11.000;2023-04-16T02:25:00;11.10;99.90
37289;DHT22;23174;49.462;11.000;2023-04-16T02:27:01;11.10;99.90
37289;DHT22;23174;49.462;11.000;2023-04-16T02:29:01;11.10;99.90
37289;DHT22;23174;49.462;11.000;2023-04-16T02:31:02;11.10;99.90
37289;DHT22;23174;49.462;11.000;2023-04-16T02:33:04;11.10;99.90
37289;DHT22;23174;49.462;11.000;2023-04-16T02:35:06;11.10;99.90
37289;DHT22;23174;49.462;11.000;2023-04-16T02:37:07;11.10;99.90
37289;DHT22;23174;49.462;11.000;2023-04-16T02:39:07;11.10;99.90
37289;DHT22;23174;49.462;11.000;2023-04-16T02:41:08;11.10;99.90
37289;DHT22;23174;49.462;11.000;2023-04-16T02:43:08;11.10;99.90
37289;DHT22;23174;49.462;11.000;2023-04-16T02:45:09;11.10;99.90
37289;DHT22;23174;49.462;11.000;2023-04-16T02:47:10;11.10;99.90
37289;DHT22;23174;49.462;11.000;2023-04-16T02:49:11;11.10;99.90
37289;DHT22;23174;49.462;11.000;2023-04-16T02:51:11;11.10;99.90
37289;DHT22;23174;49.462;11.000;2023-04-16T02:53:12;11.10;99.90
37289;DHT22;23174;49.462;11.000;2023-04-16T02:55:12;11.20;99.90
37289;DHT22;23174;49.462;11.000;2023-04-16T02:57:13;11.20;99.90
37289;DHT22;23174;49.462;11.000;2023-04-16T02:59:13;11.20;99.90
37289;DHT22;23174;49.462;11.000;2023-04-16T03:01:14;11.10;99.90
37289;DHT22;23174;49.462;11.000;2023-04-16T03:03:15;11.10;99.90
37289;DHT22;23174;49.462;11.000;2023-04-16T03:05:15;11.20;99.90
37289;DHT22;23174;49.462;11.000;2023-04-16T03:07:16;11.10;99.90
37289;DHT22;23174;49.462;11.000;2023-04-16T03:09:17;11.10;99.90
37289;DHT22;23174;49.462;11.000;2023-04-16T03:11:18;11.20;99.90
37289;DHT22;23174;49.462;11.000;2023-04-16T03:13:19;11.20;99.90
37289;DHT22;23174;49.462;11.000;2023-04-16T03:15:20;11.20;99.90
37289;DHT22;23174;49.462;11.000;2023-04-16T03:17:20;11.10;99.90
37289;DHT22;23174;49.462;11.000;2023-04-16T03:19:21;11.20;99.90
37289;DHT22;23174;49.462;11.000;2023-04-16T03:21:21;11.30;99.90
37289;DHT22;23174;49.462;11.000;2023-04-16T03:23:22;11.20;99.90
37289;DHT22;23174;49.462;11.000;2023-04-16T03:25:23;11.20;99.90
37289;DHT22;23174;49.462;11.000;2023-04-16T03:27:23;11.20;99.90
37289;DHT22;23174;49.462;11.000;2023-04-16T03:29:24;11.20;99.90
37289;DHT22;23174;49.462;11.000;2023-04-16T03:31:25;11.20;99.90
37289;DHT22;23174;49.462;11.000;2023-04-16T03:33:26;11.20;99.90
37289;DHT22;23174;49.462;11.000;2023-04-16T03:35:26;11.20;99.90
37289;DHT22;23174;49.462;11.000;2023-04-16T03:37:27;11.20;99.90
37289;DHT22;23174;49.462;11.000;2023-04-16T03:39:27;11.20;99.90
37289;DHT22;23174;49.462;11.000;2023-04-16T03:41:28;11.20;99.90
37289;DHT22;23174;49.462;11.000;2023-04-16T03:43:28;11.20;99.90
37289;DHT22;23174;49.462;11.000;2023-04-16T03:45:29;11.20;99.90
37289;DHT22;23174;49.462;11.000;2023-04-16T03:47:29;11.20;99.90
37289;DHT22;23174;49.462;11.000;2023-04-16T03:49:30;11.20;99.90
37289;DHT22;23174;49.462;11.000;2023-04-16T03:51:30;11.10;99.90
37289;DHT22;23174;49.462;11.000;2023-04-16T03:53:31;11.20;99.90
37289;DHT22;23174;49.462;11.000;2023-04-16T03:55:31;11.20;99.90
37289;DHT22;23174;49.462;11.000;2023-04-16T03:57:32;11.10;99.90
37289;DHT22;23174;49.462;11.000;2023-04-16T03:59:32;11.20;99.90
37289;DHT22;23174;49.462;11.000;2023-04-16T04:01:33;11.20;99.90
37289;DHT22;23174;49.462;11.000;2023-04-16T04:03:33;11.20;99.90
37289;DHT22;23174;49.462;11.000;2023-04-16T04:05:40;11.20;99.90
37289;DHT22;23174;49.462;11.000;2023-04-16T04:07:41;11.20;99.90
37289;DHT22;23174;49.462;11.000;2023-04-16T04:09:42;11.10;99.90
37289;DHT22;23174;49.462;11.000;2023-04-16T04:11:42;11.10;99.90
37289;DHT22;23174;49.462;11.000;2023-04-16T04:13:43;11.20;99.90
37289;DHT22;23174;49.462;11.000;2023-04-16T04:15:43;11.20;99.90
37289;DHT22;23174;49.462;11.000;2023-04-16T04:17:44;11.20;99.90
37289;DHT22;23174;49.462;11.000;2023-04-16T04:19:45;11.20;99.90
37289;DHT22;23174;49.462;11.000;2023-04-16T04:21:45;11.20;99.90
37289;DHT22;23174;49.462;11.000;2023-04-16T04:23:46;11.20;99.90
37289;DHT22;23174;49.462;11.000;2023-04-16T04:25:46;11.20;99.90
37289;DHT22;23174;49.462;11.000;2023-04-16T04:27:47;11.20;99.90
37289;DHT22;23174;49.462;11.000;2023-04-16T04:29:47;11.20;99.90
37289;DHT22;23174;49.462;11.000;2023-04-16T04:31:48;11.20;99.90
37289;DHT22;23174;49.462;11.000;2023-04-16T04:33:48;11.20;99.90
37289;DHT22;23174;49.462;11.000;2023-04-16T04:35:49;11.20;99.90
37289;DHT22;23174;49.462;11.000;2023-04-16T04:37:49;11.20;99.90
37289;DHT22;23174;49.462;11.000;2023-04-16T04:39:50;11.20;99.90
37289;DHT22;23174;49.462;11.000;2023-04-16T04:41:50;11.20;99.90
37289;DHT22;23174;49.462;11.000;2023-04-16T04:43:51;11.20;99.90
37289;DHT22;23174;49.462;11.000;2023-04-16T04:45:51;11.10;99.90
37289;DHT22;23174;49.462;11.000;2023-04-16T04:47:52;11.20;99.90
37289;DHT22;23174;49.462;11.000;2023-04-16T04:49:53;11.30;99.90
37289;DHT22;23174;49.462;11.000;2023-04-16T04:51:53;11.30;99.90
37289;DHT22;23174;49.462;11.000;2023-04-16T04:53:53;11.30;99.90
37289;DHT22;23174;49.462;11.000;2023-04-16T04:55:54;11.20;99.90
37289;DHT22;23174;49.462;11.000;2023-04-16T04:57:55;11.20;99.90
37289;DHT22;23174;49.462;11.000;2023-04-16T04:59:55;11.20;99.90
37289;DHT22;23174;49.462;11.000;2023-04-16T05:01:56;11.20;99.90
37289;DHT22;23174;49.462;11.000;2023-04-16T05:03:56;11.30;99.90
37289;DHT22;23174;49.462;11.000;2023-04-16T05:05:57;11.30;99.90
37289;DHT22;23174;49.462;11.000;2023-04-16T05:07:57;11.20;99.90
37289;DHT22;23174;49.462;11.000;2023-04-16T05:09:58;11.30;99.90
37289;DHT22;23174;49.462;11.000;2023-04-16T05:11:58;11.30;99.90
37289;DHT22;23174;49.462;11.000;2023-04-16T05:13:59;11.30;99.90
37289;DHT22;23174;49.462;11.000;2023-04-16T05:15:59;11.30;99.90
37289;DHT22;23174;49.462;11.000;2023-04-16T05:18:00;11.30;99.90
37289;DHT22;23174;49.462;11.000;2023-04-16T05:20:00;11.30;99.90
37289;DHT22;23174;49.462;11.000;2023-04-16T05:22:01;11.30;99.90
37289;DHT22;23174;49.462;11.000;2023-04-16T05:24:02;11.30;99.90
37289;DHT22;23174;49.462;11.000;2023-04-16T05:26:02;11.30;99.90
37289;DHT22;23174;49.462;11.000;2023-04-16T05:28:03;11.30;99.90
37289;DHT22;23174;49.462;11.000;2023-04-16T05:30:04;11.30;99.90
37289;DHT22;23174;49.462;11.000;2023-04-16T05:32:05;11.40;99.90
37289;DHT22;23174;49.462;11.000;2023-04-16T05:34:05;11.40;99.90
37289;DHT22;23174;49.462;11.000;2023-04-16T05:36:06;11.30;99.90
37289;DHT22;23174;49.462;11.000;2023-04-16T05:38:06;11.30;99.90
37289;DHT22;23174;49.462;11.000;2023-04-16T05:40:07;11.30;99.90
37289;DHT22;23174;49.462;11.000;2023-04-16T05:42:08;11.30;99.90
37289;DHT22;23174;49.462;11.000;2023-04-16T05:44:08;11.30;99.90
37289;DHT22;23174;49.462;11.000;2023-04-16T05:46:09;11.30;99.90
37289;DHT22;23174;49.462;11.000;2023-04-16T05:48:09;11.30;99.90
37289;DHT22;23174;49.462;11.000;2023-04-16T05:50:10;11.30;99.90
37289;DHT22;23174;49.462;11.000;2023-04-16T05:52:10;11.40;99.90
37289;DHT22;23174;49.462;11.000;2023-04-16T05:54:11;11.40;99.90
37289;DHT22;23174;49.462;11.000;2023-04-16T05:56:11;11.50;99.90
37289;DHT22;23174;49.462;11.000;2023-04-16T05:58:12;11.40;99.90
37289;DHT22;23174;49.462;11.000;2023-04-16T06:00:12;11.40;99.90
37289;DHT22;23174;49.462;11.000;2023-04-16T06:02:13;11.40;99.90
37289;DHT22;23174;49.462;11.000;2023-04-16T06:04:14;11.40;99.90
37289;DHT22;23174;49.462;11.000;2023-04-16T06:06:14;11.40;99.90
37289;DHT22;23174;49.462;11.000;2023-04-16T06:08:15;11.40;99.90
37289;DHT22;23174;49.462;11.000;2023-04-16T06:10:15;11.40;99.90
37289;DHT22;23174;49.462;11.000;2023-04-16T06:12:16;11.40;99.90
37289;DHT22;23174;49.462;11.000;2023-04-16T06:14:16;11.50;99.90
37289;DHT22;23174;49.462;11.000;2023-04-16T06:16:17;11.50;99.90
37289;DHT22;23174;49.462;11.000;2023-04-16T06:18:17;11.60;99.90
37289;DHT22;23174;49.462;11.000;2023-04-16T06:20:18;11.60;99.90
37289;DHT22;23174;49.462;11.000;2023-04-16T06:22:18;11.60;99.90
37289;DHT22;23174;49.462;11.000;2023-04-16T06:24:19;11.60;99.90
37289;DHT22;23174;49.462;11.000;2023-04-16T06:26:19;11.60;99.90
37289;DHT22;23174;49.462;11.000;2023-04-16T06:28:20;11.60;99.90
37289;DHT22;23174;49.462;11.000;2023-04-16T06:30:21;11.70;99.90
37289;DHT22;23174;49.462;11.000;2023-04-16T06:32:21;11.80;99.90
37289;DHT22;23174;49.462;11.000;2023-04-16T06:34:22;11.80;99.90
37289;DHT22;23174;49.462;11.000;2023-04-16T06:36:23;11.70;99.90
37289;DHT22;23174;49.462;11.000;2023-04-16T06:38:23;11.70;99.90
37289;DHT22;23174;49.462;11.000;2023-04-16T06:40:24;11.70;99.90
37289;DHT22;23174;49.462;11.000;2023-04-16T06:42:24;11.80;99.90
37289;DHT22;23174;49.462;11.000;2023-04-16T06:44:25;11.80;99.90
37289;DHT22;23174;49.462;11.000;2023-04-16T06:46:25;11.80;99.90
37289;DHT22;23174;49.462;11.000;2023-04-16T06:48:26;11.80;99.90
37289;DHT22;23174;49.462;11.000;2023-04-16T06:50:27;11.80;99.90
37289;DHT22;23174;49.462;11.000;2023-04-16T06:52:28;11.80;99.90
37289;DHT22;23174;49.462;11.000;2023-04-16T06:54:29;11.80;99.90
37289;DHT22;23174;49.462;11.000;2023-04-16T06:56:29;11.70;99.90
37289;DHT22;23174;49.462;11.000;2023-04-16T06:58:30;11.80;99.90
37289;DHT22;23174;49.462;11.000;2023-04-16T07:00:30;11.80;99.90
37289;DHT22;23174;49.462;11.000;2023-04-16T07:02:31;11.80;99.90
37289;DHT22;23174;49.462;11.000;2023-04-16T07:04:31;11.80;99.90
37289;DHT22;23174;49.462;11.000;2023-04-16T07:06:32;11.80;99.90
37289;DHT22;23174;49.462;11.000;2023-04-16T07:08:32;11.90;99.90
37289;DHT22;23174;49.462;11.000;2023-04-16T07:10:33;11.90;99.90
37289;DHT22;23174;49.462;11.000;2023-04-16T07:12:33;11.90;99.90
37289;DHT22;23174;49.462;11.000;2023-04-16T07:14:34;11.90;99.90
37289;DHT22;23174;49.462;11.000;2023-04-16T07:16:34;12.00;99.90
37289;DHT22;23174;49.462;11.000;2023-04-16T07:18:36;12.00;99.90
37289;DHT22;23174;49.462;11.000;2023-04-16T07:20:37;12.00;99.90
37289;DHT22;23174;49.462;11.000;2023-04-16T07:22:37;12.00;99.90
37289;DHT22;23174;49.462;11.000;2023-04-16T07:24:38;12.00;99.90
37289;DHT22;23174;49.462;11.000;2023-04-16T07:26:38;12.00;99.90
37289;DHT22;23174;49.462;11.000;2023-04-16T07:28:39;12.00;99.90
37289;DHT22;23174;49.462;11.000;2023-04-16T07:30:39;12.00;99.90
37289;DHT22;23174;49.462;11.000;2023-04-16T07:32:40;12.10;99.90
37289;DHT22;23174;49.462;11.000;2023-04-16T07:34:40;12.10;99.90
37289;DHT22;23174;49.462;11.000;2023-04-16T07:36:41;12.10;99.90
37289;DHT22;23174;49.462;11.000;2023-04-16T07:38:41;12.10;99.90
37289;DHT22;23174;49.462;11.000;2023-04-16T07:40:42;12.10;99.90
37289;DHT22;23174;49.462;11.000;2023-04-16T07:42:42;12.10;99.90
37289;DHT22;23174;49.462;11.000;2023-04-16T07:44:43;12.00;99.90
37289;DHT22;23174;49.462;11.000;2023-04-16T07:46:43;12.00;99.90
37289;DHT22;23174;49.462;11.000;2023-04-16T07:48:44;12.10;99.90
37289;DHT22;23174;49.462;11.000;2023-04-16T07:50:44;12.10;99.90
37289;DHT22;23174;49.462;11.000;2023-04-16T07:52:46;12.20;99.90
37289;DHT22;23174;49.462;11.000;2023-04-16T07:54:46;12.20;99.90
37289;DHT22;23174;49.462;11.000;2023-04-16T07:56:47;12.30;99.90
37289;DHT22;23174;49.462;11.000;2023-04-16T07:58:47;12.30;99.90
37289;DHT22;23174;49.462;11.000;2023-04-16T08:00:48;12.40;99.90
37289;DHT22;23174;49.462;11.000;2023-04-16T08:02:48;12.30;99.90
37289;DHT22;23174;49.462;11.000;2023-04-16T08:04:49;12.30;99.90
37289;DHT22;23174;49.462;11.000;2023-04-16T08:06:50;12.40;99.90
37289;DHT22;23174;49.462;11.000;2023-04-16T08:08:51;12.40;99.90
37289;DHT22;23174;49.462;11.000;2023-04-16T08:10:52;12.50;99.90
37289;DHT22;23174;49.462;11.000;2023-04-16T08:12:55;12.50;99.90
37289;DHT22;23174;49.462;11.000;2023-04-16T08:14:55;12.40;99.90
37289;DHT22;23174;49.462;11.000;2023-04-16T08:16:56;12.40;99.90
37289;DHT22;23174;49.462;11.000;2023-04-16T08:18:56;12.60;99.90
37289;DHT22;23174;49.462;11.000;2023-04-16T08:20:57;12.60;99.90
37289;DHT22;23174;49.462;11.000;2023-04-16T08:22:57;12.60;99.90
37289;DHT22;23174;49.462;11.000;2023-04-16T08:24:58;12.50;99.90
37289;DHT22;23174;49.462;11.000;2023-04-16T08:26:58;12.60;99.90
37289;DHT22;23174;49.462;11.000;2023-04-16T08:28:59;12.70;99.90
37289;DHT22;23174;49.462;11.000;2023-04-16T08:30:59;12.60;99.90
37289;DHT22;23174;49.462;11.000;2023-04-16T08:33:00;12.70;99.90
37289;DHT22;23174;49.462;11.000;2023-04-16T08:35:01;12.80;99.90
37289;DHT22;23174;49.462;11.000;2023-04-16T08:37:02;12.80;99.90
37289;DHT22;23174;49.462;11.000;2023-04-16T08:39:03;12.60;99.90
37289;DHT22;23174;49.462;11.000;2023-04-16T08:41:05;12.70;99.90
37289;DHT22;23174;49.462;11.000;2023-04-16T08:43:09;12.60;99.90
37289;DHT22;23174;49.462;11.000;2023-04-16T08:45:15;12.60;99.90
37289;DHT22;23174;49.462;11.000;2023-04-16T08:47:18;12.70;99.90
37289;DHT22;23174;49.462;11.000;2023-04-16T08:49:20;12.70;99.90
37289;DHT22;23174;49.462;11.000;2023-04-16T08:51:21;12.50;99.90
37289;DHT22;23174;49.462;11.000;2023-04-16T08:53:31;12.60;99.90
37289;DHT22;23174;49.462;11.000;2023-04-16T08:55:36;12.60;99.90
37289;DHT22;23174;49.462;11.000;2023-04-16T08:57:51;12.60;99.90
37289;DHT22;23174;49.462;11.000;2023-04-16T08:59:53;12.60;99.90
37289;DHT22;23174;49.462;11.000;2023-04-16T09:01:57;12.60;99.90
37289;DHT22;23174;49.462;11.000;2023-04-16T09:03:59;12.50;99.90
37289;DHT22;23174;49.462;11.000;2023-04-16T09:06:03;12.50;99.90
37289;DHT22;23174;49.462;11.000;2023-04-16T09:08:05;12.60;99.90
37289;DHT22;23174;49.462;11.000;2023-04-16T09:10:07;12.50;99.90
37289;DHT22;23174;49.462;11.000;2023-04-16T09:12:07;12.50;99.90
37289;DHT22;23174;49.462;11.000;2023-04-16T09:14:09;12.60;99.90
37289;DHT22;23174;49.462;11.000;2023-04-16T09:16:12;12.60;99.90
37289;DHT22;23174;49.462;11.000;2023-04-16T09:18:12;12.60;99.90
37289;DHT22;23174;49.462;11.000;2023-04-16T09:20:14;12.60;99.90
37289;DHT22;23174;49.462;11.000;2023-04-16T09:22:15;12.60;99.90
37289;DHT22;23174;49.462;11.000;2023-04-16T09:24:16;12.60;99.90
37289;DHT22;23174;49.462;11.000;2023-04-16T09:26:17;12.60;99.90
37289;DHT22;23174;49.462;11.000;2023-04-16T09:28:38;12.70;99.90
37289;DHT22;23174;49.462;11.000;2023-04-16T09:30:39;12.80;99.90
37289;DHT22;23174;49.462;11.000;2023-04-16T09:32:40;12.80;99.90
37289;DHT22;23174;49.462;11.000;2023-04-16T09:35:00;12.80;99.90
37289;DHT22;23174;49.462;11.000;2023-04-16T09:37:16;12.70;99.90
37289;DHT22;23174;49.462;11.000;2023-04-16T09:39:18;12.70;99.90
37289;DHT22;23174;49.462;11.000;2023-04-16T09:41:26;12.70;99.90
37289;DHT22;23174;49.462;11.000;2023-04-16T09:43:27;12.70;99.90
37289;DHT22;23174;49.462;11.000;2023-04-16T09:45:31;12.80;99.90
37289;DHT22;23174;49.462;11.000;2023-04-16T09:47:43;12.80;99.90
37289;DHT22;23174;49.462;11.000;2023-04-16T09:49:44;12.90;99.90
37289;DHT22;23174;49.462;11.000;2023-04-16T09:51:47;13.00;99.90
37289;DHT22;23174;49.462;11.000;2023-04-16T09:53:55;13.00;99.90
37289;DHT22;23174;49.462;11.000;2023-04-16T09:56:01;12.90;99.90
37289;DHT22;23174;49.462;11.000;2023-04-16T09:58:01;12.90;99.90
37289;DHT22;23174;49.462;11.000;2023-04-16T10:00:07;13.00;99.90
37289;DHT22;23174;49.462;11.000;2023-04-16T10:02:11;13.00;99.90
37289;DHT22;23174;49.462;11.000;2023-04-16T10:04:12;12.90;99.90
37289;DHT22;23174;49.462;11.000;2023-04-16T10:06:18;12.80;99.90
37289;DHT22;23174;49.462;11.000;2023-04-16T10:08:19;12.30;99.90
37289;DHT22;23174;49.462;11.000;2023-04-16T10:10:19;11.90;99.90
37289;DHT22;23174;49.462;11.000;2023-04-16T10:12:20;11.70;99.90
37289;DHT22;23174;49.462;11.000;2023-04-16T10:14:20;11.70;99.90
37289;DHT22;23174;49.462;11.000;2023-04-16T10:16:21;11.70;99.90
37289;DHT22;23174;49.462;11.000;2023-04-16T10:18:22;11.60;99.90
37289;DHT22;23174;49.462;11.000;2023-04-16T10:20:23;11.80;99.90
37289;DHT22;23174;49.462;11.000;2023-04-16T10:22:25;11.70;99.90
37289;DHT22;23174;49.462;11.000;2023-04-16T10:24:27;11.80;99.90
37289;DHT22;23174;49.462;11.000;2023-04-16T10:26:29;11.80;99.90
37289;DHT22;23174;49.462;11.000;2023-04-16T10:28:30;11.90;99.90
37289;DHT22;23174;49.462;11.000;2023-04-16T10:30:30;12.10;99.90
37289;DHT22;23174;49.462;11.000;2023-04-16T10:32:31;12.10;99.90
37289;DHT22;23174;49.462;11.000;2023-04-16T10:34:32;12.00;99.90
37289;DHT22;23174;49.462;11.000;2023-04-16T10:36:37;12.00;99.90
37289;DHT22;23174;49.462;11.000;2023-04-16T10:38:52;12.10;99.90
37289;DHT22;23174;49.462;11.000;2023-04-16T10:41:02;12.20;99.90
37289;DHT22;23174;49.462;11.000;2023-04-16T10:43:05;12.20;99.90
37289;DHT22;23174;49.462;11.000;2023-04-16T10:45:09;12.00;99.90
37289;DHT22;23174;49.462;11.000;2023-04-16T10:47:11;11.90;99.90
37289;DHT22;23174;49.462;11.000;2023-04-16T10:49:17;12.00;99.90
37289;DHT22;23174;49.462;11.000;2023-04-16T10:51:25;12.20;99.90
37289;DHT22;23174;49.462;11.000;2023-04-16T10:53:27;12.40;99.90
37289;DHT22;23174;49.462;11.000;2023-04-16T10:55:27;12.50;99.90
37289;DHT22;23174;49.462;11.000;2023-04-16T10:57:28;12.70;99.90
37289;DHT22;23174;49.462;11.000;2023-04-16T10:59:36;12.90;99.90
37289;DHT22;23174;49.462;11.000;2023-04-16T11:01:40;13.00;99.90
37289;DHT22;23174;49.462;11.000;2023-04-16T11:03:42;13.20;99.90
37289;DHT22;23174;49.462;11.000;2023-04-16T11:05:46;13.40;99.90
37289;DHT22;23174;49.462;11.000;2023-04-16T11:07:47;13.40;99.90
37289;DHT22;23174;49.462;11.000;2023-04-16T11:10:03;13.30;99.90
37289;DHT22;23174;49.462;11.000;2023-04-16T11:12:06;13.40;99.90
37289;DHT22;23174;49.462;11.000;2023-04-16T11:14:10;13.50;99.90
37289;DHT22;23174;49.462;11.000;2023-04-16T11:16:13;13.50;99.90
37289;DHT22;23174;49.462;11.000;2023-04-16T11:18:18;13.50;99.90
37289;DHT22;23174;49.462;11.000;2023-04-16T11:22:20;13.50;99.90
37289;DHT22;23174;49.462;11.000;2023-04-16T11:24:21;13.50;99.90
37289;DHT22;23174;49.462;11.000;2023-04-16T11:26:23;13.40;99.90
37289;DHT22;23174;49.462;11.000;2023-04-16T11:28:34;13.50;99.90
37289;DHT22;23174;49.462;11.000;2023-04-16T11:30:37;13.40;99.90
37289;DHT22;23174;49.462;11.000;2023-04-16T11:32:38;13.40;99.90
37289;DHT22;23174;49.462;11.000;2023-04-16T11:34:45;13.40;99.90
37289;DHT22;23174;49.462;11.000;2023-04-16T11:36:50;13.40;99.90
37289;DHT22;23174;49.462;11.000;2023-04-16T11:39:00;13.40;99.90
37289;DHT22;23174;49.462;11.000;2023-04-16T11:41:00;13.40;99.90
37289;DHT22;23174;49.462;11.000;2023-04-16T11:43:14;13.30;99.90
37289;DHT22;23174;49.462;11.000;2023-04-16T11:45:15;13.40;99.90
37289;DHT22;23174;49.462;11.000;2023-04-16T11:47:18;13.30;99.90
37289;DHT22;23174;49.462;11.000;2023-04-16T11:49:31;13.30;99.90
37289;DHT22;23174;49.462;11.000;2023-04-16T11:51:31;13.30;99.90
37289;DHT22;23174;49.462;11.000;2023-04-16T11:53:32;13.40;99.90
37289;DHT22;23174;49.462;11.000;2023-04-16T11:55:42;13.40;99.90
37289;DHT22;23174;49.462;11.000;2023-04-16T11:57:42;13.40;99.90
37289;DHT22;23174;49.462;11.000;2023-04-16T11:59:45;13.40;99.90
37289;DHT22;23174;49.462;11.000;2023-04-16T12:01:49;13.40;99.90
37289;DHT22;23174;49.462;11.000;2023-04-16T12:04:00;13.40;99.90
37289;DHT22;23174;49.462;11.000;2023-04-16T12:06:07;13.40;99.90
37289;DHT22;23174;49.462;11.000;2023-04-16T12:08:10;13.50;99.90
37289;DHT22;23174;49.462;11.000;2023-04-16T12:10:10;13.40;99.90
37289;DHT22;23174;49.462;11.000;2023-04-16T12:12:28;13.40;99.90
37289;DHT22;23174;49.462;11.000;2023-04-16T12:14:30;13.40;99.90
37289;DHT22;23174;49.462;11.000;2023-04-16T12:16:31;13.50;99.90
37289;DHT22;23174;49.462;11.000;2023-04-16T12:18:32;13.50;99.90
37289;DHT22;23174;49.462;11.000;2023-04-16T12:20:38;13.50;99.90
37289;DHT22;23174;49.462;11.000;2023-04-16T12:22:45;13.70;99.90
37289;DHT22;23174;49.462;11.000;2023-04-16T12:24:46;13.70;99.90
37289;DHT22;23174;49.462;11.000;2023-04-16T12:26:51;13.70;99.90
37289;DHT22;23174;49.462;11.000;2023-04-16T12:28:52;13.70;99.90
37289;DHT22;23174;49.462;11.000;2023-04-16T12:30:52;13.70;99.90
37289;DHT22;23174;49.462;11.000;2023-04-16T12:33:12;13.70;99.90
37289;DHT22;23174;49.462;11.000;2023-04-16T12:35:13;13.60;99.90
37289;DHT22;23174;49.462;11.000;2023-04-16T12:37:28;13.60;99.90